Time;durP1;ratioP1;P1;durP2;ratioP2;P2;SDS_P1;SDS_P2;PMS_P1;PMS_P2;Temp;Humidity;BMP_temperature;BMP_pressure;BME280_temperature;BME280_humidity;BME280_pressure;Samples;Min_cycle;Max_cycle;Signal;HPM_P1;HPM_P2
2023/04/28 00:01:10;;;;;;;8.80;6.35;;;18.00;1.00;;;;;;5034165;28;20010;-63
2023/04/28 00:03:36;;;;;;;8.82;6.68;;;18.00;1.00;;;;;;5035649;28;20030;-63
2023/04/28 00:06:03;;;;;;;8.95;6.53;;;18.00;1.00;;;;;;5036034;28;20027;-63
2023/04/28 00:08:28;;;;;;;9.18;6.47;;;18.00;1.00;;;;;;5034442;28;20036;-63
2023/04/28 00:10:54;;;;;;;7.65;5.97;;;17.90;1.00;;;;;;5036163;28;20025;-63
2023/04/28 00:13:20;;;;;;;9.52;6.68;;;17.90;1.00;;;;;;5035552;28;20394;-63
2023/04/28 00:15:45;;;;;;;8.25;6.25;;;17.90;1.00;;;;;;5035512;28;20029;-63
2023/04/28 00:18:11;;;;;;;7.45;5.40;;;17.80;1.00;;;;;;5036040;28;20030;-63
2023/04/28 00:20:36;;;;;;;8.35;5.18;;;17.80;1.00;;;;;;5035665;28;20459;-63
2023/04/28 00:23:02;;;;;;;7.68;5.50;;;17.70;1.00;;;;;;5035096;28;20033;-63
2023/04/28 00:25:28;;;;;;;7.68;5.60;;;17.70;1.00;;;;;;5035457;28;20031;-63
2023/04/28 00:27:53;;;;;;;8.57;5.70;;;17.70;1.00;;;;;;5035848;28;20030;-63
2023/04/28 00:30:19;;;;;;;7.20;5.30;;;17.70;1.00;;;;;;5035231;28;20087;-63
2023/04/28 00:32:45;;;;;;;10.43;6.13;;;17.70;1.00;;;;;;5035144;28;20018;-63
2023/04/28 00:35:10;;;;;;;7.50;5.47;;;17.60;1.00;;;;;;5035731;28;20052;-63
2023/04/28 00:37:37;;;;;;;9.57;5.65;;;17.60;1.00;;;;;;5035119;28;20391;-63
2023/04/28 00:40:03;;;;;;;5.78;4.97;;;17.60;1.00;;;;;;5035637;28;20036;-63
2023/04/28 00:42:30;;;;;;;7.10;4.60;;;17.60;1.00;;;;;;5035295;28;20037;-63
2023/04/28 00:44:55;;;;;;;7.35;5.60;;;17.60;1.00;;;;;;5035542;28;20037;-63
2023/04/28 00:47:21;;;;;;;6.95;5.47;;;17.60;1.00;;;;;;5035249;28;20030;-63
2023/04/28 00:49:48;;;;;;;8.95;6.05;;;17.60;1.00;;;;;;5035585;28;20091;-63
2023/04/28 00:52:15;;;;;;;7.25;5.65;;;17.60;1.00;;;;;;5029898;28;20025;-63
2023/04/28 00:54:43;;;;;;;7.18;5.25;;;17.60;1.00;;;;;;5034797;28;20479;-63
2023/04/28 00:57:09;;;;;;;6.00;5.40;;;17.50;1.00;;;;;;5030406;28;20021;-63
2023/04/28 00:59:35;;;;;;;5.93;5.10;;;17.50;1.00;;;;;;5035061;28;20026;-63
2023/04/28 01:02:02;;;;;;;9.50;5.63;;;17.50;1.00;;;;;;5027058;28;20040;-63
2023/04/28 01:04:29;;;;;;;8.95;5.78;;;17.50;1.00;;;;;;5034395;28;20383;-63
2023/04/28 01:06:55;;;;;;;7.72;5.47;;;17.50;1.00;;;;;;5034795;28;20037;-63
2023/04/28 01:09:29;;;;;;;7.60;5.85;;;17.40;1.00;;;;;;5034851;28;20053;-63
2023/04/28 01:11:57;;;;;;;;;;;17.40;1.00;;;;;;5033545;28;20419;-63
2023/04/28 01:14:22;;;;;;;5.30;4.80;;;17.40;1.00;;;;;;5034510;28;19917;-63
2023/04/28 01:16:48;;;;;;;5.63;4.45;;;17.40;1.00;;;;;;5034911;28;20029;-63
2023/04/28 01:19:21;;;;;;;5.05;4.55;;;17.40;1.00;;;;;;5034175;28;20399;-63
2023/04/28 01:21:47;;;;;;;7.40;4.90;;;17.30;1.00;;;;;;5029797;28;20107;-63
2023/04/28 01:24:12;;;;;;;6.90;4.70;;;17.30;1.00;;;;;;5028760;28;20065;-63
2023/04/28 01:26:38;;;;;;;8.88;5.30;;;17.30;1.00;;;;;;5029855;28;20132;-63
2023/04/28 01:29:04;;;;;;;12.32;5.18;;;17.30;1.00;;;;;;5026730;28;20021;-63
2023/04/28 01:31:29;;;;;;;7.38;4.70;;;17.30;1.00;;;;;;5033638;28;20044;-62
2023/04/28 01:33:56;;;;;;;8.18;4.85;;;17.20;1.00;;;;;;5033336;28;21528;-62
2023/04/28 01:36:22;;;;;;;6.10;4.75;;;17.20;1.00;;;;;;5034200;28;20357;-62
2023/04/28 01:38:48;;;;;;;6.00;5.00;;;17.20;1.00;;;;;;5033643;28;20069;-63
2023/04/28 01:41:14;;;;;;;7.10;4.90;;;17.20;1.00;;;;;;5032366;28;20067;-63
2023/04/28 01:43:45;;;;;;;6.95;4.78;;;17.20;1.00;;;;;;5034524;28;20061;-63
2023/04/28 01:46:10;;;;;;;6.20;4.70;;;17.20;1.00;;;;;;5032193;28;20029;-63
2023/04/28 01:48:36;;;;;;;6.57;4.07;;;17.10;1.00;;;;;;5033317;28;20034;-62
2023/04/28 01:51:02;;;;;;;6.65;4.45;;;17.10;1.00;;;;;;5034127;28;20132;-62
2023/04/28 01:53:27;;;;;;;4.85;4.07;;;17.00;1.00;;;;;;5033456;28;20041;-62
2023/04/28 01:55:53;;;;;;;7.85;4.25;;;17.00;1.00;;;;;;5033663;28;20038;-62
2023/04/28 01:58:19;;;;;;;5.78;4.38;;;17.00;1.00;;;;;;5025621;28;20129;-62
2023/04/28 02:00:45;;;;;;;5.03;4.13;;;17.00;1.00;;;;;;5031245;28;20028;-62
2023/04/28 02:03:11;;;;;;;6.72;4.72;;;17.00;1.00;;;;;;5031473;28;20100;-62
2023/04/28 02:05:36;;;;;;;5.75;4.60;;;17.00;1.00;;;;;;5033594;28;20097;-62
2023/04/28 02:08:02;;;;;;;5.20;4.10;;;17.00;1.00;;;;;;5032708;28;20029;-62
2023/04/28 02:10:28;;;;;;;5.03;4.53;;;16.90;1.00;;;;;;5034054;28;20032;-63
2023/04/28 02:12:53;;;;;;;5.43;3.88;;;16.90;1.00;;;;;;5033413;28;20041;-63
2023/04/28 02:15:20;;;;;;;5.65;3.78;;;16.90;1.00;;;;;;5040967;28;20386;-63
2023/04/28 02:17:46;;;;;;;4.43;3.75;;;16.90;1.00;;;;;;5035809;28;20021;-63
2023/04/28 02:20:13;;;;;;;6.40;4.30;;;16.90;1.00;;;;;;5032713;28;20033;-63
2023/04/28 02:26:02;;;;;;;4.82;3.20;;;16.90;1.00;;;;;;5017463;28;20040;-64
2023/04/28 02:28:28;;;;;;;4.97;4.50;;;16.90;1.00;;;;;;5030540;28;20009;-64
2023/04/28 02:31:05;;;;;;;5.50;4.10;;;16.80;1.00;;;;;;5032866;28;20075;-62
2023/04/28 02:33:31;;;;;;;5.63;3.63;;;16.80;1.00;;;;;;5033228;28;20132;-62
2023/04/28 02:36:01;;;;;;;7.10;3.60;;;16.80;1.00;;;;;;5032889;28;20043;-62
2023/04/28 02:38:26;;;;;;;4.43;3.33;;;16.70;1.00;;;;;;5033083;28;20415;-62
2023/04/28 02:41:07;;;;;;;4.85;3.65;;;16.80;1.00;;;;;;5036337;28;20025;-62
2023/04/28 02:43:35;;;;;;;4.63;3.42;;;16.80;1.00;;;;;;5033206;28;20475;-63
2023/04/28 02:46:02;;;;;;;4.13;3.70;;;16.70;1.00;;;;;;5032774;28;20061;-62
2023/04/28 02:48:27;;;;;;;3.78;3.40;;;16.70;1.00;;;;;;5033284;28;20030;-62
2023/04/28 02:50:59;;;;;;;5.18;3.63;;;16.70;1.00;;;;;;5032393;28;20018;-62
2023/04/28 02:53:25;;;;;;;4.22;3.83;;;16.70;1.00;;;;;;5033215;28;20040;-62
2023/04/28 02:55:50;;;;;;;4.88;4.20;;;16.70;1.00;;;;;;5032200;28;20022;-62
2023/04/28 02:58:16;;;;;;;4.38;3.80;;;16.70;1.00;;;;;;5032848;28;20155;-63
2023/04/28 03:00:42;;;;;;;7.40;4.18;;;16.70;1.00;;;;;;5031368;28;20030;-63
2023/04/28 03:03:08;;;;;;;7.60;3.80;;;16.60;1.00;;;;;;5032710;28;20032;-63
2023/04/28 03:05:33;;;;;;;4.50;3.80;;;16.70;1.00;;;;;;5032796;28;20037;-63
2023/04/28 03:07:59;;;;;;;6.38;4.25;;;16.60;1.00;;;;;;5032947;28;20021;-63
2023/04/28 03:10:25;;;;;;;5.35;4.28;;;16.70;1.00;;;;;;5031947;28;20064;-63
2023/04/28 03:12:50;;;;;;;7.80;4.32;;;16.70;1.00;;;;;;5032202;28;20033;-63
2023/04/28 03:15:16;;;;;;;5.65;3.97;;;16.60;1.00;;;;;;5041497;28;20035;-64
2023/04/28 03:17:42;;;;;;;7.90;4.70;;;16.70;1.00;;;;;;5037653;28;20117;-63
2023/04/28 03:20:09;;;;;;;5.88;4.22;;;16.70;1.00;;;;;;5032536;28;20021;-63
2023/04/28 03:22:35;;;;;;;4.30;3.83;;;16.70;1.00;;;;;;5033088;28;20033;-63
2023/04/28 03:25:01;;;;;;;5.43;4.43;;;16.60;1.00;;;;;;5032333;28;20030;-63
2023/04/28 03:27:27;;;;;;;6.18;5.25;;;16.60;1.00;;;;;;5032600;28;20029;-64
2023/04/28 03:29:53;;;;;;;7.57;4.32;;;16.60;1.00;;;;;;5030258;28;20548;-64
2023/04/28 03:32:19;;;;;;;7.13;4.95;;;16.60;1.00;;;;;;5032270;28;20038;-63
2023/04/28 03:34:45;;;;;;;8.40;5.43;;;16.60;1.00;;;;;;5034016;28;20541;-64
2023/04/28 03:37:12;;;;;;;8.27;4.93;;;16.60;1.00;;;;;;5036922;28;20025;-63
2023/04/28 03:39:38;;;;;;;6.35;4.35;;;16.60;1.00;;;;;;5033713;28;20041;-63
2023/04/28 03:42:04;;;;;;;6.43;4.53;;;16.60;1.00;;;;;;5036286;28;20506;-64
2023/04/28 03:44:30;;;;;;;8.02;4.82;;;16.60;1.00;;;;;;5036480;28;20013;-63
2023/04/28 03:46:56;;;;;;;8.25;5.13;;;16.60;1.00;;;;;;5033913;28;20025;-63
2023/04/28 03:49:21;;;;;;;5.93;4.50;;;16.60;1.00;;;;;;5027928;28;20028;-63
2023/04/28 03:51:48;;;;;;;6.05;4.63;;;16.50;1.00;;;;;;5029432;28;20021;-63
2023/04/28 03:54:14;;;;;;;6.47;5.05;;;16.50;1.00;;;;;;5035984;28;20399;-64
2023/04/28 03:56:40;;;;;;;9.13;4.80;;;16.50;1.00;;;;;;5034049;28;20032;-63
2023/04/28 03:59:05;;;;;;;6.05;4.32;;;16.50;1.00;;;;;;5034887;28;20471;-63
2023/04/28 04:01:31;;;;;;;5.22;4.40;;;16.40;1.00;;;;;;5035871;28;20017;-64
2023/04/28 04:03:57;;;;;;;7.72;4.70;;;16.50;1.00;;;;;;5036397;28;20091;-63
2023/04/28 04:06:22;;;;;;;7.35;4.25;;;16.50;1.00;;;;;;5035823;28;20418;-64
2023/04/28 04:08:48;;;;;;;7.20;5.07;;;16.50;1.00;;;;;;5036090;28;20116;-63
2023/04/28 04:11:14;;;;;;;9.60;5.03;;;16.50;1.00;;;;;;5036064;28;20070;-64
2023/04/28 04:13:39;;;;;;;8.35;4.72;;;16.50;1.00;;;;;;5036044;28;20044;-64
2023/04/28 04:16:06;;;;;;;5.60;4.75;;;16.50;1.00;;;;;;5047292;28;20029;-63
2023/04/28 04:18:31;;;;;;;5.63;4.45;;;16.50;1.00;;;;;;5034720;28;20041;-63
2023/04/28 04:20:58;;;;;;;8.85;4.63;;;16.40;1.00;;;;;;5035822;28;20383;-63
2023/04/28 04:23:24;;;;;;;6.25;4.15;;;16.50;1.00;;;;;;5022279;28;20030;-63
2023/04/28 04:25:50;;;;;;;13.45;4.88;;;16.30;1.00;;;;;;5035368;28;20025;-63
2023/04/28 04:28:15;;;;;;;12.80;5.53;;;16.30;1.00;;;;;;5035873;28;20471;-64
2023/04/28 04:30:41;;;;;;;5.70;4.93;;;16.30;1.00;;;;;;5035177;28;20021;-63
2023/04/28 04:33:07;;;;;;;13.50;5.00;;;16.30;1.00;;;;;;5035705;28;20406;-64
2023/04/28 04:35:33;;;;;;;7.53;4.78;;;16.30;1.00;;;;;;5035725;28;20025;-63
2023/04/28 04:38:00;;;;;;;7.70;4.60;;;16.30;1.00;;;;;;5034861;28;20115;-63
2023/04/28 04:40:25;;;;;;;9.85;5.55;;;16.30;1.00;;;;;;5036007;28;20175;-63
2023/04/28 04:42:51;;;;;;;7.03;4.45;;;16.30;1.00;;;;;;5035319;28;20093;-64
2023/04/28 04:45:17;;;;;;;6.00;4.65;;;16.30;1.00;;;;;;5034188;28;20021;-63
2023/04/28 04:47:43;;;;;;;6.93;4.97;;;16.20;1.00;;;;;;5035075;28;20017;-63
2023/04/28 04:50:10;;;;;;;6.47;4.93;;;16.20;1.00;;;;;;5035199;28;20114;-64
2023/04/28 04:52:36;;;;;;;7.72;4.75;;;16.30;1.00;;;;;;5035081;28;20034;-64
2023/04/28 04:55:01;;;;;;;6.20;5.22;;;16.30;1.00;;;;;;5034812;28;20468;-64
2023/04/28 04:57:27;;;;;;;6.68;5.05;;;16.20;1.00;;;;;;5035250;28;20032;-64
2023/04/28 04:59:53;;;;;;;8.50;5.65;;;16.20;1.00;;;;;;5034711;28;20104;-64
2023/04/28 05:02:18;;;;;;;6.10;4.88;;;16.30;1.00;;;;;;5034659;28;20038;-64
2023/04/28 05:04:44;;;;;;;6.82;5.30;;;16.20;1.00;;;;;;5034607;28;20059;-63
2023/04/28 05:07:10;;;;;;;6.72;5.80;;;16.30;1.00;;;;;;5031212;28;20511;-63
2023/04/28 05:09:35;;;;;;;8.82;5.43;;;16.20;1.00;;;;;;5035272;28;20103;-63
2023/04/28 05:12:01;;;;;;;8.52;5.70;;;16.30;1.00;;;;;;5034813;28;20094;-63
2023/04/28 05:14:27;;;;;;;7.20;6.00;;;16.20;1.00;;;;;;5037337;28;20109;-62
2023/04/28 05:16:52;;;;;;;6.65;5.82;;;16.30;1.00;;;;;;5039344;28;20097;-63
2023/04/28 05:19:18;;;;;;;8.20;6.63;;;16.30;1.00;;;;;;5029450;28;20112;-63
2023/04/28 05:21:46;;;;;;;6.70;6.00;;;16.40;1.00;;;;;;5034263;28;20479;-63
2023/04/28 05:24:12;;;;;;;6.90;5.53;;;16.40;1.00;;;;;;5034399;28;20038;-63
2023/04/28 05:26:38;;;;;;;7.22;6.30;;;16.40;1.00;;;;;;5034134;28;20467;-63
2023/04/28 05:29:04;;;;;;;8.52;6.28;;;16.40;1.00;;;;;;5034543;28;20456;-63
2023/04/28 05:31:30;;;;;;;8.40;5.70;;;16.40;1.00;;;;;;5033918;28;20071;-63
2023/04/28 05:33:55;;;;;;;8.02;6.35;;;16.40;1.00;;;;;;5034739;28;20051;-63
2023/04/28 05:36:21;;;;;;;9.32;6.85;;;16.40;1.00;;;;;;5033724;28;20479;-63
2023/04/28 05:38:47;;;;;;;7.75;6.25;;;16.40;1.00;;;;;;5033689;28;20514;-63
2023/04/28 05:41:12;;;;;;;9.90;6.65;;;16.40;1.00;;;;;;5034613;28;20033;-63
2023/04/28 05:43:38;;;;;;;8.82;6.47;;;16.40;1.00;;;;;;5033700;28;20063;-63
2023/04/28 05:46:04;;;;;;;9.73;6.30;;;16.40;1.00;;;;;;5033966;28;20106;-63
2023/04/28 05:48:29;;;;;;;8.50;6.90;;;16.50;1.00;;;;;;5033495;28;20065;-63
2023/04/28 05:50:55;;;;;;;12.75;8.77;;;16.50;1.00;;;;;;5034116;28;20037;-63
2023/04/28 05:53:20;;;;;;;15.55;11.55;;;16.60;1.00;;;;;;5020617;28;20034;-63
2023/04/28 05:55:47;;;;;;;11.90;10.07;;;16.60;1.00;;;;;;5020682;28;20029;-63
2023/04/28 05:58:13;;;;;;;11.25;8.57;;;16.60;1.00;;;;;;5031818;28;20029;-63
2023/04/28 06:00:38;;;;;;;12.32;8.05;;;16.60;1.00;;;;;;5032010;28;20387;-63
2023/04/28 06:03:24;;;;;;;7.95;6.88;;;16.60;1.00;;;;;;5033809;28;20033;-63
2023/04/28 06:05:50;;;;;;;8.77;6.45;;;16.70;1.00;;;;;;5021897;28;20021;-63
2023/04/28 06:08:16;;;;;;;8.20;5.93;;;16.70;1.00;;;;;;5032473;28;20140;-63
2023/04/28 06:10:42;;;;;;;7.78;6.20;;;16.80;1.00;;;;;;5033643;28;20531;-63
2023/04/28 06:13:08;;;;;;;10.35;6.00;;;16.80;1.00;;;;;;5033481;28;20498;-62
2023/04/28 06:15:34;;;;;;;7.82;6.07;;;16.80;1.00;;;;;;5045067;28;20021;-63
2023/04/28 06:18:00;;;;;;;8.23;6.32;;;16.80;1.00;;;;;;5035459;28;20029;-63
2023/04/28 06:20:25;;;;;;;8.75;6.68;;;16.90;1.00;;;;;;5033420;28;20022;-63
2023/04/28 06:22:51;;;;;;;7.13;6.38;;;16.90;1.00;;;;;;5031013;28;20036;-63
2023/04/28 06:25:17;;;;;;;12.60;5.88;;;17.00;1.00;;;;;;5032495;28;20031;-63
2023/04/28 06:27:42;;;;;;;9.77;6.97;;;16.90;1.00;;;;;;5033409;28;20382;-62
2023/04/28 06:30:08;;;;;;;9.85;6.30;;;16.90;1.00;;;;;;5031771;28;20032;-63
2023/04/28 06:32:34;;;;;;;10.77;7.30;;;17.00;1.00;;;;;;5028749;28;20026;-63
2023/04/28 06:34:59;;;;;;;9.85;6.90;;;17.10;1.00;;;;;;5033570;28;20017;-63
2023/04/28 06:37:25;;;;;;;7.72;6.80;;;17.00;1.00;;;;;;5038402;28;20483;-62
2023/04/28 06:39:51;;;;;;;7.15;6.28;;;17.10;1.00;;;;;;5049609;28;20497;-64
2023/04/28 06:42:18;;;;;;;8.45;6.35;;;17.10;1.00;;;;;;5049307;28;20367;-64
2023/04/28 06:45:08;;;;;;;7.18;6.25;;;17.00;1.00;;;;;;5045932;28;20016;-64
2023/04/28 06:47:39;;;;;;;9.63;6.35;;;17.00;1.00;;;;;;5044791;28;20067;-64
2023/04/28 06:50:05;;;;;;;8.20;5.78;;;16.90;1.00;;;;;;5047602;28;20029;-64
2023/04/28 06:52:31;;;;;;;9.88;7.00;;;17.00;1.00;;;;;;5051882;28;20438;-64
2023/04/28 06:54:57;;;;;;;11.63;6.65;;;17.00;1.00;;;;;;5035270;28;20109;-64
2023/04/28 06:57:22;;;;;;;11.68;7.00;;;17.00;1.00;;;;;;5049621;28;20395;-64
2023/04/28 06:59:48;;;;;;;11.88;7.07;;;17.00;1.00;;;;;;5038941;28;20407;-64
2023/04/28 07:02:13;;;;;;;9.13;6.75;;;17.00;1.00;;;;;;5046681;28;20096;-64
2023/04/28 07:04:39;;;;;;;9.98;6.72;;;16.90;1.00;;;;;;5049379;28;20060;-64
2023/04/28 07:07:07;;;;;;;10.80;6.57;;;16.90;1.00;;;;;;5044755;28;20021;-64
2023/04/28 07:09:33;;;;;;;8.68;6.95;;;16.90;1.00;;;;;;5046321;28;20382;-64
2023/04/28 07:11:59;;;;;;;10.90;7.60;;;16.90;1.00;;;;;;5047257;28;20489;-64
2023/04/28 07:14:25;;;;;;;7.65;6.85;;;17.00;1.00;;;;;;5048897;28;20111;-64
2023/04/28 07:16:50;;;;;;;9.60;6.43;;;17.00;1.00;;;;;;5047831;28;20053;-63
2023/04/28 07:19:16;;;;;;;9.85;6.57;;;16.90;1.00;;;;;;5049462;28;20044;-64
2023/04/28 07:21:42;;;;;;;10.52;7.60;;;16.90;1.00;;;;;;5042440;28;20018;-63
2023/04/28 07:24:07;;;;;;;11.32;7.47;;;16.80;1.00;;;;;;5045186;28;20036;-63
2023/04/28 07:26:33;;;;;;;6.60;5.93;;;17.10;1.00;;;;;;5049561;28;20021;-63
2023/04/28 07:28:59;;;;;;;8.68;6.35;;;17.20;1.00;;;;;;5037019;28;20043;-63
2023/04/28 07:31:25;;;;;;;9.10;6.72;;;17.30;1.00;;;;;;5040008;28;20029;-63
2023/04/28 07:33:50;;;;;;;9.45;6.43;;;17.50;1.00;;;;;;5046677;28;20048;-63
2023/04/28 07:36:16;;;;;;;8.05;6.47;;;17.60;1.00;;;;;;5048355;28;20033;-63
2023/04/28 07:38:42;;;;;;;9.93;7.15;;;17.80;1.00;;;;;;5049428;28;20038;-64
2023/04/28 07:41:07;;;;;;;7.72;6.43;;;17.90;1.00;;;;;;5048003;28;20013;-64
2023/04/28 07:43:36;;;;;;;10.35;6.40;;;18.00;1.00;;;;;;5049914;28;20490;-64
2023/04/28 07:46:02;;;;;;;8.07;6.50;;;18.00;1.00;;;;;;5045782;28;20017;-63
2023/04/28 07:48:28;;;;;;;7.68;6.25;;;18.10;1.00;;;;;;5046924;28;20541;-64
2023/04/28 07:50:53;;;;;;;9.52;7.55;;;18.20;1.00;;;;;;5038996;28;20101;-63
2023/04/28 07:53:19;;;;;;;8.88;6.32;;;18.10;1.00;;;;;;5043865;28;20079;-63
2023/04/28 07:55:45;;;;;;;10.88;6.45;;;18.10;1.00;;;;;;5044266;28;20143;-64
2023/04/28 07:58:12;;;;;;;6.32;5.28;;;18.00;1.00;;;;;;5035152;28;20506;-64
2023/04/28 08:00:37;;;;;;;10.68;7.18;;;18.10;1.00;;;;;;5041797;28;20418;-63
2023/04/28 08:03:03;;;;;;;11.02;7.32;;;18.10;1.00;;;;;;5047523;28;20028;-63
2023/04/28 08:05:29;;;;;;;9.77;6.07;;;18.30;1.00;;;;;;5043146;28;20026;-63
2023/04/28 08:07:55;;;;;;;8.55;6.43;;;18.40;1.00;;;;;;5047344;28;20028;-63
2023/04/28 08:10:20;;;;;;;9.25;6.90;;;18.40;1.00;;;;;;5044632;28;20050;-64
2023/04/28 08:12:46;;;;;;;9.05;6.05;;;18.60;1.00;;;;;;5044606;28;20044;-63
2023/04/28 08:15:12;;;;;;;10.57;9.20;;;18.70;1.00;;;;;;5047232;28;20017;-63
2023/04/28 08:17:40;;;;;;;10.55;8.55;;;18.80;1.00;;;;;;5037517;28;20477;-64
2023/04/28 08:20:06;;;;;;;14.32;8.15;;;18.90;1.00;;;;;;5020975;28;20018;-64
2023/04/28 08:22:32;;;;;;;7.43;6.05;;;19.00;1.00;;;;;;5023840;28;20022;-64
2023/04/28 08:24:58;;;;;;;7.80;5.72;;;19.10;1.00;;;;;;5034826;28;20083;-64
2023/04/28 08:27:24;;;;;;;8.63;6.47;;;19.10;1.00;;;;;;5035862;28;20108;-64
2023/04/28 08:29:50;;;;;;;12.60;5.55;;;19.30;1.00;;;;;;5035260;28;20372;-64
2023/04/28 08:32:16;;;;;;;8.45;5.55;;;19.30;1.00;;;;;;5035182;28;20079;-64
2023/04/28 08:34:42;;;;;;;5.10;4.60;;;19.30;1.00;;;;;;5034171;28;20494;-64
2023/04/28 08:37:08;;;;;;;5.25;4.75;;;19.30;1.00;;;;;;5035347;28;20029;-64
2023/04/28 08:39:34;;;;;;;6.70;4.88;;;19.20;1.00;;;;;;5035173;28;20049;-64
2023/04/28 08:42:06;;;;;;;8.38;5.95;;;19.20;1.00;;;;;;5034943;28;20071;-64
2023/04/28 08:44:38;;;;;;;8.73;5.60;;;19.10;1.00;;;;;;5035254;28;20065;-64
2023/04/28 08:47:13;;;;;;;11.15;5.28;;;19.00;1.00;;;;;;5035100;28;20021;-64
2023/04/28 08:49:39;;;;;;;14.48;6.05;;;18.80;1.00;;;;;;5035278;28;20025;-64
2023/04/28 08:52:15;;;;;;;6.13;4.78;;;18.70;1.00;;;;;;5035070;28;20065;-64
2023/04/28 08:54:42;;;;;;;6.75;5.18;;;18.70;1.00;;;;;;5035125;28;20033;-64
2023/04/28 08:57:09;;;;;;;7.22;5.32;;;18.60;1.00;;;;;;5030073;28;20025;-64
2023/04/28 08:59:38;;;;;;;6.70;5.32;;;18.60;1.00;;;;;;5034068;28;20060;-64
2023/04/28 09:02:04;;;;;;;7.18;5.28;;;18.70;1.00;;;;;;5035167;28;20041;-64
2023/04/28 09:04:29;;;;;;;6.43;5.05;;;18.60;1.00;;;;;;5034502;28;20102;-64
2023/04/28 09:06:55;;;;;;;6.10;5.10;;;18.70;1.00;;;;;;5035200;28;20022;-64
2023/04/28 09:09:29;;;;;;;6.25;5.07;;;18.70;1.00;;;;;;5033561;28;20029;-64
2023/04/28 09:11:59;;;;;;;8.88;5.28;;;18.70;1.00;;;;;;5021058;28;20018;-64
2023/04/28 09:14:27;;;;;;;6.03;4.03;;;18.70;1.00;;;;;;5034427;28;20041;-64
2023/04/28 09:16:53;;;;;;;13.35;4.90;;;18.80;1.00;;;;;;5034642;28;20044;-64
2023/04/28 09:19:19;;;;;;;5.50;4.82;;;18.80;1.00;;;;;;5034298;28;20064;-64
2023/04/28 09:21:55;;;;;;;7.97;4.93;;;18.80;1.00;;;;;;5034370;28;20013;-64
2023/04/28 09:24:37;;;;;;;5.07;4.55;;;18.90;1.00;;;;;;5034301;28;20041;-64
2023/04/28 09:27:04;;;;;;;9.20;4.55;;;18.90;1.00;;;;;;5023993;28;20502;-64
2023/04/28 09:29:31;;;;;;;6.88;3.72;;;18.90;1.00;;;;;;5034314;28;20360;-64
2023/04/28 09:32:14;;;;;;;5.72;3.90;;;18.90;1.00;;;;;;5033585;28;20095;-64
2023/04/28 09:34:50;;;;;;;5.85;3.97;;;19.00;1.00;;;;;;5033336;28;20041;-65
2023/04/28 09:37:18;;;;;;;6.97;4.15;;;19.10;1.00;;;;;;5032527;28;20075;-64
2023/04/28 09:39:52;;;;;;;6.20;3.88;;;19.10;1.00;;;;;;5033422;28;20163;-64
2023/04/28 09:42:35;;;;;;;6.53;3.47;;;19.20;1.00;;;;;;5033263;28;20055;-63
2023/04/28 09:45:06;;;;;;;6.28;4.65;;;19.20;1.00;;;;;;5062273;28;20033;-63
2023/04/28 09:47:34;;;;;;;5.15;3.80;;;19.20;1.00;;;;;;5033728;28;20035;-64
2023/04/28 09:50:05;;;;;;;6.55;4.57;;;19.30;1.00;;;;;;5034179;28;20103;-63
2023/04/28 09:52:33;;;;;;;8.02;4.53;;;19.30;1.00;;;;;;5033880;28;20539;-64
2023/04/28 09:55:02;;;;;;;7.57;4.88;;;19.40;1.00;;;;;;5033626;28;20521;-65
2023/04/28 09:57:33;;;;;;;6.50;4.25;;;19.40;1.00;;;;;;5033447;28;20136;-64
2023/04/28 10:00:00;;;;;;;8.07;4.78;;;19.50;1.00;;;;;;5033529;28;20398;-63
2023/04/28 10:02:27;;;;;;;6.40;4.60;;;19.60;1.00;;;;;;5034096;28;20037;-64
2023/04/28 10:04:53;;;;;;;5.28;4.80;;;19.60;1.00;;;;;;5032254;28;20029;-64
2023/04/28 10:07:19;;;;;;;20.45;6.03;;;19.70;1.00;;;;;;5033520;28;20036;-64
2023/04/28 10:09:49;;;;;;;4.88;4.38;;;19.70;1.00;;;;;;5033326;28;20035;-64
2023/04/28 10:12:19;;;;;;;6.57;4.47;;;19.70;1.00;;;;;;5033370;28;20031;-64
2023/04/28 10:14:48;;;;;;;4.75;4.22;;;19.80;1.00;;;;;;5038546;28;20509;-64
2023/04/28 10:17:15;;;;;;;6.72;5.70;;;19.90;1.00;;;;;;5039961;28;20044;-64
2023/04/28 10:19:45;;;;;;;13.82;6.00;;;19.90;1.00;;;;;;5033775;28;20117;-64
2023/04/28 10:22:32;;;;;;;8.90;5.68;;;19.90;1.00;;;;;;5033311;28;20490;-64
2023/04/28 10:25:13;;;;;;;6.32;4.95;;;19.90;1.00;;;;;;5033579;28;20025;-63
2023/04/28 10:27:42;;;;;;;7.00;5.00;;;20.10;1.00;;;;;;5025403;28;20430;-65
2023/04/28 10:30:20;;;;;;;6.32;5.65;;;20.20;1.00;;;;;;5031819;28;20021;-64
2023/04/28 10:32:46;;;;;;;9.80;5.93;;;20.30;1.00;;;;;;5031085;28;20034;-64
2023/04/28 10:35:24;;;;;;;8.77;6.53;;;20.40;1.00;;;;;;5033405;28;20550;-64
2023/04/28 10:38:08;;;;;;;7.25;5.28;;;20.50;1.00;;;;;;5030900;28;20053;-63
2023/04/28 10:40:36;;;;;;;11.77;6.18;;;20.60;1.00;;;;;;5020855;28;20033;-64
2023/04/28 10:43:02;;;;;;;9.38;6.60;;;20.60;1.00;;;;;;5031998;28;20029;-64
2023/04/28 10:45:52;;;;;;;10.52;6.43;;;20.60;1.00;;;;;;5033074;28;20471;-65
2023/04/28 10:48:36;;;;;;;9.75;6.90;;;20.80;1.00;;;;;;5037437;28;20038;-64
2023/04/28 10:53:45;;;;;;;7.50;6.40;;;20.70;1.00;;;;;;5044636;28;20048;-63
2023/04/28 10:56:18;;;;;;;;;;;20.90;1.00;;;;;;5046054;28;20032;-63
2023/04/28 10:58:49;;;;;;;9.55;7.03;;;20.90;1.00;;;;;;5043687;28;19912;-64
2023/04/28 11:01:18;;;;;;;7.88;6.45;;;21.10;1.00;;;;;;5038895;28;20021;-64
2023/04/28 11:06:34;;;;;;;11.40;7.82;;;21.40;1.00;;;;;;5037176;28;20037;-64
2023/04/28 11:09:16;;;;;;;11.20;7.47;;;21.40;1.00;;;;;;5042293;28;20033;-64
2023/04/28 11:12:00;;;;;;;7.97;7.18;;;21.50;1.00;;;;;;5044994;28;20061;-63
2023/04/28 11:14:28;;;;;;;9.18;7.97;;;21.60;1.00;;;;;;5045241;28;20431;-63
2023/04/28 11:16:59;;;;;;;9.98;7.78;;;21.70;1.00;;;;;;5047470;28;20036;-65
2023/04/28 11:19:40;;;;;;;11.50;7.95;;;21.70;1.00;;;;;;5046251;28;20037;-63
2023/04/28 11:22:15;;;;;;;12.02;8.13;;;21.80;1.00;;;;;;5046331;28;20471;-63
2023/04/28 11:24:53;;;;;;;10.90;8.05;;;22.00;1.00;;;;;;5041184;28;20021;-63
2023/04/28 11:27:30;;;;;;;10.25;7.97;;;22.10;1.00;;;;;;5051303;28;20036;-64
2023/04/28 11:29:56;;;;;;;11.02;8.65;;;22.20;1.00;;;;;;5045543;28;20499;-64
2023/04/28 11:32:28;;;;;;;10.48;7.28;;;22.40;1.00;;;;;;5050606;28;20158;-63
2023/04/28 11:34:54;;;;;;;10.02;8.48;;;22.60;1.00;;;;;;5039620;28;20042;-64
2023/04/28 11:37:21;;;;;;;10.98;8.02;;;22.70;1.00;;;;;;5038534;28;20088;-64
2023/04/28 11:39:47;;;;;;;11.35;9.45;;;22.80;1.00;;;;;;5040454;28;20059;-64
2023/04/28 11:42:13;;;;;;;12.48;8.30;;;22.90;1.00;;;;;;5045512;28;20526;-64
2023/04/28 11:44:40;;;;;;;11.75;7.90;;;23.00;1.00;;;;;;5046316;28;20100;-64
2023/04/28 11:47:06;;;;;;;12.82;8.88;;;23.30;1.00;;;;;;5042720;28;20033;-64
2023/04/28 11:49:42;;;;;;;8.65;7.57;;;23.50;1.00;;;;;;5050031;28;20040;-65
2023/04/28 11:52:09;;;;;;;12.15;8.60;;;24.30;99.90;;;;;;5047702;28;20036;-64
2023/04/28 11:54:35;;;;;;;11.60;9.05;;;26.30;99.90;;;;;;5043337;28;20033;-64
2023/04/28 11:57:03;;;;;;;10.00;8.30;;;29.30;99.90;;;;;;5051387;28;20020;-64
2023/04/28 11:59:44;;;;;;;11.90;8.70;;;32.80;99.90;;;;;;5050681;28;20033;-63
2023/04/28 12:02:11;;;;;;;10.20;8.05;;;34.70;99.90;;;;;;5046104;28;20395;-64
2023/04/28 12:04:41;;;;;;;12.73;9.82;;;35.40;99.90;;;;;;5051197;28;20030;-64
2023/04/28 12:07:11;;;;;;;11.75;9.88;;;35.80;99.90;;;;;;5046423;28;20467;-64
2023/04/28 12:09:39;;;;;;;12.35;10.25;;;35.30;99.90;;;;;;5051296;28;20029;-64
2023/04/28 12:12:07;;;;;;;12.50;9.07;;;36.00;99.90;;;;;;5053309;28;20579;-64
2023/04/28 12:14:56;;;;;;;10.23;8.77;;;35.60;99.90;;;;;;5042920;28;20455;-64
2023/04/28 12:17:24;;;;;;;10.77;8.18;;;37.20;99.90;;;;;;5046576;28;20033;-64
2023/04/28 12:19:50;;;;;;;12.63;9.88;;;39.40;99.90;;;;;;5049029;28;20116;-64
2023/04/28 12:25:44;;;;;;;12.20;11.00;;;34.90;99.90;;;;;;5044737;28;20430;-65
2023/04/28 12:28:10;;;;;;;12.93;11.57;;;33.00;99.90;;;;;;5045151;28;20476;-65
2023/04/28 12:30:40;;;;;;;12.18;10.77;;;34.20;99.90;;;;;;5050184;28;20025;-66
2023/04/28 12:33:24;;;;;;;11.85;10.65;;;34.20;99.90;;;;;;5042015;28;20045;-64
2023/04/28 12:35:49;;;;;;;12.07;10.77;;;34.30;99.90;;;;;;5041430;28;20032;-63
2023/04/28 12:38:15;;;;;;;10.57;9.48;;;35.70;99.90;;;;;;5036594;28;20053;-62
2023/04/28 12:40:47;;;;;;;12.70;10.57;;;37.90;99.90;;;;;;5042952;28;20029;-62
2023/04/28 12:43:13;;;;;;;13.65;11.27;;;39.60;99.90;;;;;;5045502;28;20100;-63
2023/04/28 12:45:40;;;;;;;12.85;11.25;;;39.50;99.90;;;;;;5049480;28;20032;-62
2023/04/28 12:48:06;;;;;;;11.73;9.90;;;38.40;99.90;;;;;;5049609;28;20116;-63
2023/04/28 12:50:32;;;;;;;12.38;11.15;;;38.70;99.90;;;;;;5041368;28;20497;-62
2023/04/28 12:52:58;;;;;;;20.98;12.80;;;41.20;99.90;;;;;;5045069;28;20021;-65
2023/04/28 12:55:25;;;;;;;12.63;11.38;;;40.00;99.90;;;;;;5035883;28;20480;-66
2023/04/28 12:57:51;;;;;;;12.73;11.43;;;40.20;99.90;;;;;;5047234;28;20022;-65
2023/04/28 13:00:20;;;;;;;10.88;9.77;;;40.20;99.90;;;;;;5047259;28;20147;-65
2023/04/28 13:02:45;;;;;;;11.75;10.60;;;38.80;99.90;;;;;;5049540;28;20031;-64
2023/04/28 13:05:13;;;;;;;12.23;10.77;;;37.50;99.90;;;;;;5049523;28;20105;-65
2023/04/28 13:07:38;;;;;;;12.63;10.02;;;36.80;99.90;;;;;;5038062;28;20024;-64